createdAt,value
2022-11-29T00:01:38.812Z,10.75
2022-11-29T00:04:12.053Z,13.13
2022-11-29T00:06:41.738Z,11.18
2022-11-29T00:09:13.950Z,10.68
2022-11-29T00:12:00.481Z,11.50
2022-11-29T00:14:29.614Z,11.82
2022-11-29T00:17:02.633Z,10.60
2022-11-29T00:19:33.196Z,11.10
2022-11-29T00:22:04.030Z,13.50
2022-11-29T00:24:33.360Z,11.35
2022-11-29T00:27:02.471Z,10.77
2022-11-29T00:29:31.684Z,11.82
2022-11-29T00:32:03.528Z,11.15
2022-11-29T00:34:31.885Z,11.40
2022-11-29T00:37:04.727Z,11.40
2022-11-29T00:39:32.840Z,10.90
2022-11-29T00:42:01.547Z,11.10
2022-11-29T00:44:30.555Z,11.15
2022-11-29T00:46:58.675Z,10.48
2022-11-29T00:49:27.191Z,10.35
2022-11-29T00:51:56.197Z,10.45
2022-11-29T00:54:25.862Z,10.60
2022-11-29T00:56:54.814Z,10.85
2022-11-29T00:59:25.373Z,10.40
2022-11-29T01:01:55.125Z,10.30
2022-11-29T01:04:26.990Z,10.18
2022-11-29T01:06:55.388Z,11.55
2022-11-29T01:09:25.474Z,10.25
2022-11-29T01:11:54.027Z,10.18
2022-11-29T01:14:22.413Z,10.20
2022-11-29T01:16:51.013Z,10.73
2022-11-29T01:19:19.614Z,11.25
2022-11-29T01:21:47.884Z,10.20
2022-11-29T01:24:16.386Z,10.15
2022-11-29T01:26:46.139Z,10.23
2022-11-29T01:29:15.609Z,10.50
2022-11-29T01:31:43.934Z,10.10
2022-11-29T01:34:12.213Z,9.60
2022-11-29T01:36:40.896Z,10.68
2022-11-29T01:39:09.698Z,9.98
2022-11-29T01:41:39.293Z,10.32
2022-11-29T01:44:47.949Z,10.02
2022-11-29T01:47:19.587Z,9.63
2022-11-29T01:49:51.675Z,9.68
2022-11-29T01:52:24.216Z,10.07
2022-11-29T01:54:56.690Z,10.10
2022-11-29T01:57:26.073Z,9.63
2022-11-29T02:00:00.592Z,10.10
2022-11-29T02:02:33.567Z,9.43
2022-11-29T02:05:03.693Z,9.32
2022-11-29T02:07:36.506Z,9.70
2022-11-29T02:10:06.563Z,9.68
2022-11-29T02:12:47.683Z,9.57
2022-11-29T02:15:30.173Z,9.77
2022-11-29T02:18:12.271Z,9.57
2022-11-29T02:21:11.997Z,10.15
2022-11-29T02:24:14.703Z,9.25
2022-11-29T02:27:15.589Z,10.10
2022-11-29T02:30:18.572Z,9.80
2022-11-29T02:33:28.131Z,9.10
2022-11-29T02:36:24.870Z,9.52
2022-11-29T02:39:16.111Z,9.13
2022-11-29T02:42:10.055Z,9.63
2022-11-29T02:45:04.863Z,9.88
2022-11-29T02:47:45.732Z,9.43
2022-11-29T02:50:20.577Z,9.20
2022-11-29T02:53:01.997Z,9.15
2022-11-29T02:55:37.272Z,9.15
2022-11-29T02:58:14.946Z,9.23
2022-11-29T03:00:56.943Z,9.63
2022-11-29T03:06:04.322Z,10.20
2022-11-29T03:08:42.389Z,9.60
2022-11-29T03:11:19.375Z,9.18
2022-11-29T03:13:56.975Z,9.52
2022-11-29T03:16:41.282Z,9.23
2022-11-29T03:19:41.128Z,11.25
2022-11-29T03:22:16.218Z,8.73
2022-11-29T03:25:00.308Z,8.90
2022-11-29T03:27:37.592Z,10.60
2022-11-29T03:30:12.285Z,8.95
2022-11-29T03:32:47.646Z,8.90
2022-11-29T03:35:21.447Z,8.70
2022-11-29T03:37:58.481Z,8.50
2022-11-29T03:40:33.155Z,9.15
2022-11-29T03:43:07.090Z,9.43
2022-11-29T03:45:43.806Z,8.95
2022-11-29T03:48:17.948Z,9.00
2022-11-29T03:50:55.083Z,9.95
2022-11-29T03:53:30.332Z,9.10
2022-11-29T03:56:03.730Z,8.30
2022-11-29T03:58:40.984Z,9.85
2022-11-29T04:01:38.103Z,9.00
2022-11-29T04:04:42.932Z,9.98
2022-11-29T04:07:32.468Z,9.50
2022-11-29T04:10:16.698Z,8.77
2022-11-29T04:13:21.666Z,9.00
2022-11-29T04:16:10.475Z,8.25
2022-11-29T04:19:16.414Z,8.55
2022-11-29T04:22:00.192Z,9.13
2022-11-29T04:24:57.300Z,8.75
2022-11-29T04:27:42.770Z,9.07
2022-11-29T04:30:22.037Z,8.90
2022-11-29T04:33:33.739Z,8.23
2022-11-29T04:36:20.785Z,8.80
2022-11-29T04:39:08.219Z,9.00
2022-11-29T04:41:56.005Z,8.90
2022-11-29T04:44:51.138Z,8.73
2022-11-29T04:47:41.453Z,8.77
2022-11-29T04:50:31.285Z,8.65
2022-11-29T04:53:27.496Z,9.00
2022-11-29T04:56:16.429Z,8.75
2022-11-29T04:58:55.639Z,8.40
2022-11-29T05:01:29.968Z,8.52
2022-11-29T05:04:19.726Z,9.02
2022-11-29T05:07:02.958Z,9.60
2022-11-29T05:09:43.693Z,8.02
2022-11-29T05:12:20.453Z,8.30
2022-11-29T05:15:06.554Z,8.68
2022-11-29T05:17:43.215Z,8.93
2022-11-29T05:20:25.674Z,9.25
2022-11-29T05:23:08.674Z,8.52
2022-11-29T05:25:43.978Z,9.35
2022-11-29T05:28:20.431Z,8.23
2022-11-29T05:31:07.774Z,8.52
2022-11-29T05:33:54.072Z,8.32
2022-11-29T05:36:34.486Z,8.38
2022-11-29T05:39:16.525Z,8.50
2022-11-29T05:42:02.620Z,10.00
2022-11-29T05:44:35.542Z,9.07
2022-11-29T05:47:10.120Z,9.13
2022-11-29T05:49:45.697Z,8.43
2022-11-29T05:52:26.934Z,8.23
2022-11-29T05:55:11.499Z,8.70
2022-11-29T05:57:47.622Z,10.63
2022-11-29T06:00:19.040Z,9.35
2022-11-29T06:02:55.537Z,12.30
2022-11-29T06:05:33.249Z,8.75
2022-11-29T06:08:07.910Z,9.68
2022-11-29T06:10:41.739Z,10.10
2022-11-29T06:13:23.961Z,9.52
2022-11-29T06:16:14.495Z,14.48
2022-11-29T06:19:22.352Z,14.93
2022-11-29T06:22:01.448Z,28.38
2022-11-29T06:25:05.518Z,14.80
2022-11-29T06:27:48.473Z,21.23
2022-11-29T06:30:21.474Z,14.52
2022-11-29T06:32:54.410Z,13.93
2022-11-29T06:35:40.844Z,19.73
2022-11-29T06:38:18.179Z,27.92
2022-11-29T06:43:41.519Z,25.90
2022-11-29T06:46:18.710Z,19.55
2022-11-29T06:48:55.500Z,19.10
2022-11-29T06:51:32.798Z,24.42
2022-11-29T06:54:10.945Z,18.95
2022-11-29T06:56:45.499Z,22.42
2022-11-29T06:59:30.848Z,14.38
2022-11-29T07:02:05.796Z,20.17
2022-11-29T07:04:57.793Z,23.05
2022-11-29T07:07:26.547Z,18.05
2022-11-29T07:09:59.721Z,18.67
2022-11-29T07:12:28.431Z,16.17
2022-11-29T07:14:58.858Z,13.80
2022-11-29T07:17:35.473Z,17.27
2022-11-29T07:20:10.679Z,13.52
2022-11-29T07:22:56.221Z,15.40
2022-11-29T07:25:37.030Z,15.90
2022-11-29T07:28:15.838Z,15.18
2022-11-29T07:30:54.492Z,16.60
2022-11-29T07:33:31.825Z,12.57
2022-11-29T07:36:07.040Z,11.25
2022-11-29T07:38:48.319Z,14.43
2022-11-29T07:41:24.892Z,13.05
2022-11-29T07:44:01.483Z,17.60
2022-11-29T07:46:30.944Z,16.65
2022-11-29T07:48:59.247Z,15.52
2022-11-29T07:51:27.430Z,12.25
2022-11-29T07:53:55.555Z,10.57
2022-11-29T07:56:23.546Z,14.30
2022-11-29T07:58:51.886Z,13.00
2022-11-29T08:01:20.289Z,12.00
2022-11-29T08:03:49.679Z,11.98
2022-11-29T08:06:25.464Z,15.32
2022-11-29T08:08:53.853Z,12.98
2022-11-29T08:11:22.160Z,12.25
2022-11-29T08:13:50.263Z,14.68
2022-11-29T08:16:20.827Z,11.40
2022-11-29T08:18:50.932Z,10.50
2022-11-29T08:21:19.321Z,11.27
2022-11-29T08:23:49.611Z,10.82
2022-11-29T08:26:20.210Z,10.27
2022-11-29T08:28:52.822Z,12.20
2022-11-29T08:31:22.091Z,11.38
2022-11-29T08:33:51.521Z,10.98
2022-11-29T08:36:21.328Z,12.40
2022-11-29T08:38:57.192Z,11.32
2022-11-29T08:41:30.273Z,10.00
2022-11-29T08:43:58.756Z,11.25
2022-11-29T08:46:46.839Z,13.60
2022-11-29T08:49:16.779Z,10.73
2022-11-29T08:51:44.883Z,13.57
2022-11-29T08:54:12.055Z,11.70
2022-11-29T08:59:28.747Z,12.15
2022-11-29T09:01:57.273Z,10.80
2022-11-29T09:04:26.699Z,9.95
2022-11-29T09:06:54.684Z,10.13
2022-11-29T09:09:23.204Z,16.17
2022-11-29T09:11:54.126Z,10.77
2022-11-29T09:14:22.890Z,9.85
2022-11-29T09:16:51.067Z,10.73
2022-11-29T09:19:19.719Z,11.00
2022-11-29T09:21:49.183Z,10.25
2022-11-29T09:24:18.842Z,11.30
2022-11-29T09:26:48.440Z,9.65
2022-11-29T09:29:17.722Z,9.90
2022-11-29T09:31:46.011Z,11.38
2022-11-29T09:34:14.526Z,10.63
2022-11-29T09:36:45.087Z,11.35
2022-11-29T09:39:14.973Z,10.83
2022-11-29T09:42:13.171Z,11.10
2022-11-29T09:44:52.449Z,11.52
2022-11-29T09:47:32.932Z,10.05
2022-11-29T09:50:15.910Z,9.77
2022-11-29T09:52:53.078Z,10.38
2022-11-29T09:55:39.543Z,10.48
2022-11-29T09:58:12.724Z,10.25
2022-11-29T10:00:48.575Z,11.00
2022-11-29T10:03:25.371Z,9.55
2022-11-29T10:06:01.674Z,9.88
2022-11-29T10:08:35.655Z,9.98
2022-11-29T10:11:17.502Z,10.20
2022-11-29T10:13:50.358Z,10.40
2022-11-29T10:16:23.542Z,12.23
2022-11-29T10:19:01.140Z,10.27
2022-11-29T10:21:33.693Z,10.30
2022-11-29T10:24:06.016Z,9.90
2022-11-29T10:26:36.047Z,10.70
2022-11-29T10:29:04.174Z,9.98
2022-11-29T10:31:36.050Z,10.70
2022-11-29T10:34:13.202Z,10.30
2022-11-29T10:36:44.349Z,10.02
2022-11-29T10:39:18.538Z,10.35
2022-11-29T10:41:50.835Z,10.00
2022-11-29T10:44:19.125Z,10.10
2022-11-29T10:46:48.603Z,10.50
2022-11-29T10:49:19.087Z,10.15
2022-11-29T10:51:48.098Z,10.20
2022-11-29T10:54:31.218Z,10.25
2022-11-29T10:57:02.476Z,12.27
2022-11-29T10:59:36.787Z,10.60
2022-11-29T11:02:06.674Z,9.85
2022-11-29T11:04:37.607Z,9.82
2022-11-29T11:07:07.437Z,10.38
2022-11-29T11:09:37.495Z,10.10
2022-11-29T11:12:12.975Z,9.95
2022-11-29T11:14:41.320Z,9.65
2022-11-29T11:17:17.917Z,9.40
2022-11-29T11:19:56.527Z,10.05
2022-11-29T11:22:26.926Z,10.27
2022-11-29T11:25:00.735Z,10.70
2022-11-29T11:27:37.870Z,10.95
2022-11-29T11:30:19.203Z,10.35
2022-11-29T11:33:10.759Z,9.82
2022-11-29T11:35:38.813Z,9.93
2022-11-29T11:38:16.211Z,10.10
2022-11-29T11:40:44.772Z,10.70
2022-11-29T11:43:22.525Z,10.10
2022-11-29T11:45:54.148Z,10.27
2022-11-29T11:48:27.873Z,9.95
2022-11-29T11:50:59.792Z,10.35
2022-11-29T11:53:30.550Z,11.40
2022-11-29T11:56:01.572Z,11.57
2022-11-29T11:58:33.678Z,10.23
2022-11-29T12:01:15.888Z,10.63
2022-11-29T12:03:54.514Z,10.60
2022-11-29T12:06:36.097Z,11.02
2022-11-29T12:09:11.982Z,10.75
2022-11-29T12:11:47.165Z,10.65
2022-11-29T12:14:26.499Z,10.55
2022-11-29T12:17:04.990Z,10.60
2022-11-29T12:19:42.387Z,10.80
2022-11-29T12:22:20.490Z,10.43
2022-11-29T12:24:56.232Z,10.65
2022-11-29T12:27:24.264Z,11.25
2022-11-29T12:29:54.027Z,10.75
2022-11-29T12:32:47.425Z,10.52
2022-11-29T12:35:36.023Z,10.80
2022-11-29T12:38:14.299Z,11.15
2022-11-29T12:40:55.262Z,10.35
2022-11-29T12:43:35.804Z,10.68
2022-11-29T12:46:13.536Z,12.10
2022-11-29T12:48:51.016Z,10.20
2022-11-29T12:51:27.408Z,11.20
2022-11-29T12:54:12.587Z,10.55
2022-11-29T12:56:51.104Z,10.38
2022-11-29T12:59:33.043Z,10.73
2022-11-29T13:02:21.179Z,11.05
2022-11-29T13:05:00.398Z,11.63
2022-11-29T13:07:39.073Z,10.73
2022-11-29T13:10:38.931Z,10.68
2022-11-29T13:13:20.627Z,10.70
2022-11-29T13:15:56.033Z,10.63
2022-11-29T13:18:35.422Z,10.70
2022-11-29T13:21:11.684Z,12.50
2022-11-29T13:26:41.173Z,10.98
2022-11-29T13:29:15.687Z,12.82
2022-11-29T13:31:45.120Z,11.00
2022-11-29T13:34:20.150Z,11.25
2022-11-29T13:37:02.352Z,11.15
2022-11-29T13:39:45.279Z,11.43
2022-11-29T13:42:20.942Z,11.10
2022-11-29T13:44:58.989Z,11.20
2022-11-29T13:47:29.849Z,10.90
2022-11-29T13:50:02.618Z,11.15
2022-11-29T13:52:42.177Z,11.20
2022-11-29T13:55:31.714Z,10.93
2022-11-29T13:58:16.686Z,11.85
2022-11-29T14:00:51.749Z,11.25
2022-11-29T14:03:41.386Z,11.18
2022-11-29T14:06:14.134Z,11.75
2022-11-29T14:09:17.061Z,12.30
2022-11-29T14:11:44.322Z,10.90
2022-11-29T14:14:24.130Z,11.13
2022-11-29T14:16:56.667Z,12.07
2022-11-29T14:19:33.106Z,11.23
2022-11-29T14:22:33.615Z,11.13
2022-11-29T14:28:34.115Z,11.35
2022-11-29T14:31:04.989Z,11.98
2022-11-29T14:33:41.888Z,10.73
2022-11-29T14:36:34.986Z,10.93
2022-11-29T14:39:21.503Z,11.70
2022-11-29T14:41:57.032Z,11.75
2022-11-29T14:44:28.201Z,11.40
2022-11-29T14:47:07.792Z,11.57
2022-11-29T14:49:42.601Z,12.18
2022-11-29T14:52:20.138Z,10.95
2022-11-29T14:55:01.465Z,11.20
2022-11-29T14:57:56.044Z,11.93
2022-11-29T15:00:27.147Z,13.43
2022-11-29T15:03:00.219Z,12.25
2022-11-29T15:05:34.458Z,12.63
2022-11-29T15:08:10.648Z,12.40
2022-11-29T15:10:42.335Z,11.75
2022-11-29T15:13:14.700Z,12.20
2022-11-29T15:16:03.011Z,11.98
2022-11-29T15:18:55.198Z,12.02
2022-11-29T15:21:36.359Z,11.70
2022-11-29T15:24:12.119Z,11.85
2022-11-29T15:26:55.980Z,12.43
2022-11-29T15:29:24.531Z,11.20
2022-11-29T15:31:55.282Z,11.52
2022-11-29T15:34:31.676Z,12.73
2022-11-29T15:37:00.731Z,11.23
2022-11-29T15:39:32.061Z,11.45
2022-11-29T15:42:11.066Z,12.00
2022-11-29T15:44:45.732Z,12.57
2022-11-29T15:47:22.485Z,19.05
2022-11-29T15:49:50.604Z,15.45
2022-11-29T15:52:26.755Z,15.27
2022-11-29T15:54:57.801Z,14.18
2022-11-29T15:57:31.799Z,16.48
2022-11-29T16:00:03.231Z,16.02
2022-11-29T16:02:34.826Z,13.82
2022-11-29T16:05:09.606Z,15.10
2022-11-29T16:07:40.508Z,16.83
2022-11-29T16:10:15.713Z,13.40
2022-11-29T16:12:54.484Z,15.05
2022-11-29T16:15:28.856Z,12.90
2022-11-29T16:18:04.299Z,15.77
2022-11-29T16:20:32.889Z,14.80
2022-11-29T16:23:12.702Z,14.00
2022-11-29T16:25:59.743Z,14.07
2022-11-29T16:28:37.591Z,14.48
2022-11-29T16:31:06.073Z,14.85
2022-11-29T16:33:34.289Z,17.52
2022-11-29T16:36:07.881Z,24.23
2022-11-29T16:38:36.738Z,16.35
2022-11-29T16:42:30.785Z,14.82
2022-11-29T16:45:31.351Z,15.02
2022-11-29T16:47:59.863Z,23.63
2022-11-29T16:50:32.822Z,35.75
2022-11-29T16:53:34.994Z,32.60
2022-11-29T16:58:38.760Z,34.35
2022-11-29T17:01:19.061Z,39.95
2022-11-29T17:03:47.350Z,39.70
2022-11-29T17:06:16.278Z,43.22
2022-11-29T17:08:44.638Z,35.75
2022-11-29T17:11:15.029Z,30.27
2022-11-29T17:13:43.178Z,26.10
2022-11-29T17:16:14.612Z,26.50
2022-11-29T17:18:45.246Z,25.95
2022-11-29T17:21:18.925Z,23.08
2022-11-29T17:23:47.252Z,22.52
2022-11-29T17:26:15.994Z,23.90
2022-11-29T17:28:45.364Z,23.23
2022-11-29T17:31:14.709Z,23.98
2022-11-29T17:33:44.649Z,21.67
2022-11-29T17:36:16.677Z,21.85
2022-11-29T17:39:01.703Z,20.65
2022-11-29T17:41:55.510Z,21.85
2022-11-29T17:44:23.832Z,22.55
2022-11-29T17:46:51.957Z,21.88
2022-11-29T17:49:22.223Z,21.95
2022-11-29T17:51:52.377Z,21.92
2022-11-29T17:54:21.341Z,19.70
2022-11-29T17:56:49.743Z,23.40
2022-11-29T17:59:17.992Z,20.25
2022-11-29T18:01:47.379Z,18.98
2022-11-29T18:04:15.934Z,22.25
2022-11-29T18:06:49.860Z,21.30
2022-11-29T18:09:19.948Z,19.90
2022-11-29T18:11:50.190Z,19.45
2022-11-29T18:14:24.329Z,19.55
2022-11-29T18:16:53.217Z,17.65
2022-11-29T18:19:23.455Z,20.17
2022-11-29T18:21:53.317Z,19.90
2022-11-29T18:24:21.308Z,20.00
2022-11-29T18:26:49.590Z,18.60
2022-11-29T18:29:18.142Z,19.70
2022-11-29T18:31:47.650Z,19.73
2022-11-29T18:34:16.579Z,16.92
2022-11-29T18:36:47.105Z,16.85
2022-11-29T18:39:24.253Z,16.70
2022-11-29T18:41:52.472Z,18.90
2022-11-29T18:44:24.281Z,17.60
2022-11-29T18:46:52.406Z,16.75
2022-11-29T18:49:20.720Z,17.27
2022-11-29T18:51:50.193Z,20.45
2022-11-29T18:54:20.621Z,20.90
2022-11-29T18:56:54.105Z,16.23
2022-11-29T18:59:23.242Z,18.80
2022-11-29T19:01:51.938Z,18.52
2022-11-29T19:04:21.628Z,17.33
2022-11-29T19:06:50.007Z,17.35
2022-11-29T19:09:21.546Z,20.92
2022-11-29T19:11:50.153Z,17.58
2022-11-29T19:14:18.697Z,21.13
2022-11-29T19:16:48.236Z,19.42
2022-11-29T19:19:19.195Z,16.25
2022-11-29T19:21:48.246Z,18.35
2022-11-29T19:24:18.111Z,15.60
2022-11-29T19:26:49.475Z,18.38
2022-11-29T19:29:18.440Z,16.25
2022-11-29T19:31:46.554Z,15.10
2022-11-29T19:34:15.074Z,14.70
2022-11-29T19:36:44.655Z,16.23
2022-11-29T19:39:14.214Z,19.15
2022-11-29T19:41:45.272Z,15.57
2022-11-29T19:44:15.276Z,17.52
2022-11-29T19:46:45.733Z,18.23
2022-11-29T19:49:14.295Z,15.38
2022-11-29T19:51:42.670Z,19.17
2022-11-29T19:54:12.029Z,15.05
2022-11-29T19:56:40.960Z,14.23
2022-11-29T19:59:09.853Z,15.55
2022-11-29T20:01:42.259Z,16.48
2022-11-29T20:04:12.716Z,14.43
2022-11-29T20:06:44.334Z,16.55
2022-11-29T20:09:14.819Z,16.27
2022-11-29T20:11:43.065Z,19.00
2022-11-29T20:14:15.519Z,18.45
2022-11-29T20:16:45.993Z,18.98
2022-11-29T20:19:17.252Z,16.63
2022-11-29T20:21:47.773Z,14.35
2022-11-29T20:24:17.451Z,14.50
2022-11-29T20:26:48.128Z,16.50
2022-11-29T20:29:17.137Z,17.67
2022-11-29T20:31:50.679Z,14.90
2022-11-29T20:34:20.924Z,14.80
2022-11-29T20:37:30.267Z,13.65
2022-11-29T20:40:01.325Z,16.77
2022-11-29T20:43:08.543Z,15.60
2022-11-29T20:45:38.203Z,13.95
2022-11-29T20:48:16.425Z,14.15
2022-11-29T20:50:48.453Z,16.52
2022-11-29T20:53:31.023Z,13.98
2022-11-29T20:55:59.342Z,16.60
2022-11-29T20:58:27.674Z,13.73
2022-11-29T21:00:56.778Z,15.05
2022-11-29T21:03:28.915Z,17.42
2022-11-29T21:05:58.168Z,17.63
2022-11-29T21:08:27.638Z,15.35
2022-11-29T21:10:55.988Z,13.52
2022-11-29T21:13:24.722Z,14.45
2022-11-29T21:15:53.647Z,14.35
2022-11-29T21:18:24.314Z,18.73
2022-11-29T21:21:13.103Z,19.23
2022-11-29T21:23:53.149Z,16.48
2022-11-29T21:26:25.559Z,15.20
2022-11-29T21:29:01.573Z,15.82
2022-11-29T21:31:30.267Z,16.45
2022-11-29T21:33:58.938Z,16.25
2022-11-29T21:36:28.890Z,17.35
2022-11-29T21:39:00.940Z,19.40
2022-11-29T21:41:33.531Z,15.95
2022-11-29T21:44:08.986Z,16.67
2022-11-29T21:46:37.598Z,15.75
2022-11-29T21:49:06.139Z,16.85
2022-11-29T21:51:35.550Z,17.60
2022-11-29T21:54:04.178Z,16.67
2022-11-29T21:56:32.384Z,20.73
2022-11-29T21:59:00.459Z,16.25
2022-11-29T22:01:29.577Z,15.88
2022-11-29T22:03:57.937Z,15.93
2022-11-29T22:06:26.393Z,16.48
2022-11-29T22:08:56.079Z,17.60
2022-11-29T22:11:31.805Z,15.88
2022-11-29T22:14:17.126Z,17.55
2022-11-29T22:16:47.374Z,16.70
2022-11-29T22:19:17.343Z,14.02
2022-11-29T22:21:48.294Z,15.20
2022-11-29T22:24:19.949Z,15.07
2022-11-29T22:29:17.247Z,15.98
2022-11-29T22:31:46.905Z,14.73
2022-11-29T22:34:15.757Z,16.00
2022-11-29T22:36:44.311Z,16.10
2022-11-29T22:39:12.803Z,16.92
2022-11-29T22:41:43.015Z,15.18
2022-11-29T22:44:11.495Z,14.80
2022-11-29T22:46:41.345Z,16.85
2022-11-29T22:49:09.731Z,17.17
2022-11-29T22:51:39.581Z,15.13
2022-11-29T22:54:09.323Z,15.95
2022-11-29T22:56:40.519Z,14.57
2022-11-29T22:59:10.326Z,14.15
2022-11-29T23:01:40.625Z,14.13
2022-11-29T23:04:10.757Z,14.60
2022-11-29T23:06:41.257Z,14.23
2022-11-29T23:09:15.604Z,14.75
2022-11-29T23:11:44.379Z,15.80
2022-11-29T23:14:14.210Z,18.48
2022-11-29T23:16:42.699Z,13.48
2022-11-29T23:19:10.891Z,14.48
2022-11-29T23:21:44.801Z,13.73
2022-11-29T23:24:13.343Z,14.07
2022-11-29T23:26:46.063Z,13.38
2022-11-29T23:29:18.319Z,13.55
2022-11-29T23:31:47.701Z,14.43
2022-11-29T23:34:15.899Z,13.30
2022-11-29T23:36:47.012Z,14.80
2022-11-29T23:39:19.602Z,14.88
2022-11-29T23:41:47.855Z,14.00
2022-11-29T23:44:17.307Z,14.07
2022-11-29T23:46:45.477Z,13.73
2022-11-29T23:49:13.893Z,15.00
2022-11-29T23:51:41.951Z,14.68
2022-11-29T23:54:10.514Z,13.85
2022-11-29T23:56:38.793Z,15.82
2022-11-29T23:59:07.319Z,13.80
